Details From KEGE - Eagle Co Rgnl
To KVNY - Van Nuys
Flight Number -
Tags Generated
Created
Modified
Stats Distance 643 nm / 1,191 km
Max Altitude 0 ft / 0 m
Waypoints 4
Social Downloads 2
Likes 0
Share VATSIM

Download

Looking for another format? Having issues loading an existing format? Contact us
Advertisement - Login to hide

Notes

Generated

Route

KEGE AZC PAI KVNY

ID Type Via Altitude Latitude Longitude Leg Dist Tot Dist Heading (true) Name
O KEGE APT - 0 ft / 0 m 39.64472˚ -106.92333˚ - 0 nm - EAGLE CO RGNL
AZC NDB - 0 ft / 0 m 36.95989˚ -113.00911˚ 328 nm 328 nm 243° / 239° COLORADO CITY NDB
PAI NDB - 0 ft / 0 m 34.25972˚ -118.41342˚ 309 nm 638 nm 240° / 237° PACOIMA NDB
O KVNY APT - 0 ft / 0 m 34.21899˚ -118.49000˚ 4 nm 643 nm 237° / 237° -

Altitude Profile

Advertisement - Login to hide

Weather


0- 5 10 15 20 25 30 35+ Temperature / ° C

Clouds and Precipitation
Forecast for 2018-05-27 18:00 UTC. Updated 3 hours ago

Ground ~20,000 ft ~40,000 ft Winds

KEGE

Details ICAO KEGE (EGE)
Name EAGLE CO RGNL
Region United States
Timezone America/Denver (UTC-6.0)
Stats Elevation 6,540 ft / 1,993 m (AMSL)
Location 39.642567° -106.917696°
Runways 1
Magnetic Variation 9.119° E

METAR

KEGE 271956Z 34010G17KT 10SM CLR 27/M08 A2990 RMK AO2 SLP060 T02671078

Decode

TAF

TAF KEGE 271733Z 2718/2818 VRB03KT P6SM SKC FM272000 23010G20KT P6SM FEW110 FM280200 22006KT P6SM FEW150 FM280500 14005KT P6SM FEW250

Decode

Departure Runways

ID Width Length Bearing (true) Bearing (mag) Surface Threshold Offset Overrun Length
07 150 ft / 46 m 7,981 ft / 2,433 m 81.90° 72.78° Asphalt 0 ft / 0 m 0 ft / 0 m
25 150 ft / 46 m 7,981 ft / 2,433 m 261.92° 252.80° Asphalt 0 ft / 0 m 0 ft / 0 m

KVNY

Details ICAO KVNY (VNY)
Name Van Nuys
Region United States
Timezone America/Los_Angeles (UTC-7.0)
Stats Elevation 802 ft / 244 m (AMSL)
Location 34.210723° -118.489841°
Runways 2
Magnetic Variation 12.035° E

METAR

KVNY 271951Z VRB04KT 10SM FEW031 23/11 A2991 RMK AO2 SLP122 T02280111

Decode

TAF

KVNY 271733Z 2718/2818 VRB05KT P6SM SCT025 FM272000 12008KT P6SM SKC FM280500 VRB03KT P6SM SKC FM281000 VRB03KT P6SM BKN015 FM281500 VRB03KT 6SM HZ BKN020

Decode

Destination Runways

ID Width Length Bearing (true) Bearing (mag) Surface Threshold Offset Overrun Length
16L 75 ft / 23 m 4,021 ft / 1,226 m 175.53° 163.49° Asphalt 1,430 ft / 436 m 0 ft / 0 m
16R 151 ft / 46 m 8,022 ft / 2,445 m 175.54° 163.50° Asphalt 1,430 ft / 436 m 151 ft / 46 m
34L 151 ft / 46 m 8,022 ft / 2,445 m 355.54° 343.50° Asphalt 0 ft / 0 m 151 ft / 46 m
34R 75 ft / 23 m 4,021 ft / 1,226 m 355.53° 343.49° Asphalt 0 ft / 0 m 0 ft / 0 m

Approach Navaids

Runway Type Ident Frequency Range Bearing (true) Bearing (mag) Slope Elevation
16R Localiser IVNY 111.30 MHz 18 nm / 33 km 175.54° 163.50° - 741 ft / 226 m (AMSL)
16R Glidescope IVNY 111.30 MHz 10 nm / 19 km 175.54° 163.50° 3.90° 784 ft / 239 m (AMSL)

Popular Alternatives